sensor_id;sensor_type;location;lat;lon;timestamp;P1;durP1;ratioP1;P2;durP2;ratioP2
23123;SDS011;11731;48.592;8.858;2022-12-20T00:00:45;15.07;;;8.53;;
23123;SDS011;11731;48.592;8.858;2022-12-20T00:03:15;12.23;;;9.07;;
23123;SDS011;11731;48.592;8.858;2022-12-20T00:05:42;11.37;;;8.50;;
23123;SDS011;11731;48.592;8.858;2022-12-20T00:08:09;13.70;;;8.20;;
23123;SDS011;11731;48.592;8.858;2022-12-20T00:10:36;11.67;;;7.97;;
23123;SDS011;11731;48.592;8.858;2022-12-20T00:13:03;13.00;;;8.83;;
23123;SDS011;11731;48.592;8.858;2022-12-20T00:15:30;15.93;;;8.80;;
23123;SDS011;11731;48.592;8.858;2022-12-20T00:17:57;11.87;;;7.63;;
23123;SDS011;11731;48.592;8.858;2022-12-20T00:20:26;12.13;;;7.73;;
23123;SDS011;11731;48.592;8.858;2022-12-20T00:22:54;12.03;;;7.63;;
23123;SDS011;11731;48.592;8.858;2022-12-20T00:25:21;12.17;;;8.33;;
23123;SDS011;11731;48.592;8.858;2022-12-20T00:27:48;10.13;;;7.87;;
23123;SDS011;11731;48.592;8.858;2022-12-20T00:30:15;12.07;;;7.60;;
23123;SDS011;11731;48.592;8.858;2022-12-20T00:32:42;13.50;;;8.07;;
23123;SDS011;11731;48.592;8.858;2022-12-20T00:35:11;9.40;;;7.33;;
23123;SDS011;11731;48.592;8.858;2022-12-20T00:37:40;11.63;;;7.80;;
23123;SDS011;11731;48.592;8.858;2022-12-20T00:40:07;11.50;;;8.03;;
23123;SDS011;11731;48.592;8.858;2022-12-20T00:42:34;12.27;;;8.30;;
23123;SDS011;11731;48.592;8.858;2022-12-20T00:45:01;11.07;;;7.77;;
23123;SDS011;11731;48.592;8.858;2022-12-20T00:47:28;10.90;;;7.20;;
23123;SDS011;11731;48.592;8.858;2022-12-20T00:49:55;11.67;;;7.50;;
23123;SDS011;11731;48.592;8.858;2022-12-20T00:52:22;12.17;;;7.80;;
23123;SDS011;11731;48.592;8.858;2022-12-20T00:54:50;12.23;;;7.73;;
23123;SDS011;11731;48.592;8.858;2022-12-20T00:57:18;8.70;;;7.20;;
23123;SDS011;11731;48.592;8.858;2022-12-20T00:59:45;9.87;;;7.40;;
23123;SDS011;11731;48.592;8.858;2022-12-20T01:02:11;14.17;;;7.77;;
23123;SDS011;11731;48.592;8.858;2022-12-20T01:04:38;11.47;;;7.57;;
23123;SDS011;11731;48.592;8.858;2022-12-20T01:07:05;10.70;;;7.10;;
23123;SDS011;11731;48.592;8.858;2022-12-20T01:09:33;11.13;;;7.43;;
23123;SDS011;11731;48.592;8.858;2022-12-20T01:12:03;11.23;;;7.60;;
23123;SDS011;11731;48.592;8.858;2022-12-20T01:14:33;10.80;;;7.60;;
23123;SDS011;11731;48.592;8.858;2022-12-20T01:17:00;11.87;;;8.37;;
23123;SDS011;11731;48.592;8.858;2022-12-20T01:19:27;11.00;;;7.80;;
23123;SDS011;11731;48.592;8.858;2022-12-20T01:21:54;11.73;;;8.17;;
23123;SDS011;11731;48.592;8.858;2022-12-20T01:24:21;13.13;;;9.03;;
23123;SDS011;11731;48.592;8.858;2022-12-20T01:26:50;11.13;;;8.20;;
23123;SDS011;11731;48.592;8.858;2022-12-20T01:29:18;14.43;;;9.17;;
23123;SDS011;11731;48.592;8.858;2022-12-20T01:31:45;14.40;;;9.17;;
23123;SDS011;11731;48.592;8.858;2022-12-20T01:34:12;12.57;;;9.20;;
23123;SDS011;11731;48.592;8.858;2022-12-20T01:36:39;14.23;;;9.30;;
23123;SDS011;11731;48.592;8.858;2022-12-20T01:39:07;15.40;;;9.03;;
23123;SDS011;11731;48.592;8.858;2022-12-20T01:41:37;13.97;;;9.23;;
23123;SDS011;11731;48.592;8.858;2022-12-20T01:47:07;16.40;;;9.50;;
23123;SDS011;11731;48.592;8.858;2022-12-20T01:49:34;16.97;;;9.63;;
23123;SDS011;11731;48.592;8.858;2022-12-20T01:52:06;13.43;;;9.63;;
23123;SDS011;11731;48.592;8.858;2022-12-20T01:54:37;19.07;;;10.17;;
23123;SDS011;11731;48.592;8.858;2022-12-20T01:57:07;12.43;;;9.27;;
23123;SDS011;11731;48.592;8.858;2022-12-20T01:59:38;13.97;;;9.33;;
23123;SDS011;11731;48.592;8.858;2022-12-20T02:02:08;12.63;;;9.20;;
23123;SDS011;11731;48.592;8.858;2022-12-20T02:04:37;16.00;;;9.40;;
23123;SDS011;11731;48.592;8.858;2022-12-20T02:07:04;13.90;;;9.10;;
23123;SDS011;11731;48.592;8.858;2022-12-20T02:09:32;13.57;;;8.83;;
23123;SDS011;11731;48.592;8.858;2022-12-20T02:12:02;15.30;;;9.00;;
23123;SDS011;11731;48.592;8.858;2022-12-20T02:14:40;15.67;;;9.33;;
23123;SDS011;11731;48.592;8.858;2022-12-20T02:20:53;13.50;;;8.73;;
23123;SDS011;11731;48.592;8.858;2022-12-20T02:32:47;15.47;;;10.43;;
23123;SDS011;11731;48.592;8.858;2022-12-20T02:35:20;15.80;;;10.13;;
23123;SDS011;11731;48.592;8.858;2022-12-20T02:37:50;15.00;;;9.63;;
23123;SDS011;11731;48.592;8.858;2022-12-20T02:40:19;17.07;;;10.43;;
23123;SDS011;11731;48.592;8.858;2022-12-20T02:42:49;13.10;;;9.53;;
23123;SDS011;11731;48.592;8.858;2022-12-20T02:45:42;13.77;;;9.50;;
23123;SDS011;11731;48.592;8.858;2022-12-20T02:48:09;15.83;;;10.00;;
23123;SDS011;11731;48.592;8.858;2022-12-20T02:50:42;16.07;;;9.43;;
23123;SDS011;11731;48.592;8.858;2022-12-20T02:53:11;14.90;;;9.97;;
23123;SDS011;11731;48.592;8.858;2022-12-20T02:55:40;15.10;;;8.97;;
23123;SDS011;11731;48.592;8.858;2022-12-20T02:58:13;14.03;;;9.63;;
23123;SDS011;11731;48.592;8.858;2022-12-20T03:00:48;14.80;;;9.93;;
23123;SDS011;11731;48.592;8.858;2022-12-20T03:03:16;13.57;;;9.03;;
23123;SDS011;11731;48.592;8.858;2022-12-20T03:05:50;14.90;;;9.27;;
23123;SDS011;11731;48.592;8.858;2022-12-20T03:08:18;14.37;;;9.10;;
23123;SDS011;11731;48.592;8.858;2022-12-20T03:10:46;13.43;;;9.57;;
23123;SDS011;11731;48.592;8.858;2022-12-20T03:13:14;12.97;;;9.33;;
23123;SDS011;11731;48.592;8.858;2022-12-20T03:15:41;11.10;;;8.20;;
23123;SDS011;11731;48.592;8.858;2022-12-20T03:18:09;13.40;;;8.97;;
23123;SDS011;11731;48.592;8.858;2022-12-20T03:20:44;12.63;;;8.97;;
23123;SDS011;11731;48.592;8.858;2022-12-20T03:23:11;13.93;;;8.97;;
23123;SDS011;11731;48.592;8.858;2022-12-20T03:25:38;14.30;;;8.87;;
23123;SDS011;11731;48.592;8.858;2022-12-20T03:28:05;11.13;;;8.67;;
23123;SDS011;11731;48.592;8.858;2022-12-20T03:30:32;13.43;;;8.13;;
23123;SDS011;11731;48.592;8.858;2022-12-20T03:32:59;12.40;;;7.90;;
23123;SDS011;11731;48.592;8.858;2022-12-20T03:35:35;11.47;;;8.43;;
23123;SDS011;11731;48.592;8.858;2022-12-20T03:38:02;12.57;;;8.40;;
23123;SDS011;11731;48.592;8.858;2022-12-20T03:40:28;14.90;;;8.60;;
23123;SDS011;11731;48.592;8.858;2022-12-20T03:42:55;13.90;;;8.70;;
23123;SDS011;11731;48.592;8.858;2022-12-20T03:45:22;13.30;;;8.67;;
23123;SDS011;11731;48.592;8.858;2022-12-20T03:47:49;15.80;;;8.77;;
23123;SDS011;11731;48.592;8.858;2022-12-20T03:50:16;12.63;;;8.60;;
23123;SDS011;11731;48.592;8.858;2022-12-20T03:52:44;14.03;;;8.80;;
23123;SDS011;11731;48.592;8.858;2022-12-20T03:55:11;12.27;;;8.63;;
23123;SDS011;11731;48.592;8.858;2022-12-20T03:57:48;12.63;;;8.97;;
23123;SDS011;11731;48.592;8.858;2022-12-20T04:00:15;12.80;;;8.67;;
23123;SDS011;11731;48.592;8.858;2022-12-20T04:02:43;11.73;;;8.33;;
23123;SDS011;11731;48.592;8.858;2022-12-20T04:05:09;12.17;;;8.53;;
23123;SDS011;11731;48.592;8.858;2022-12-20T04:07:36;12.10;;;8.00;;
23123;SDS011;11731;48.592;8.858;2022-12-20T04:10:06;16.70;;;11.10;;
23123;SDS011;11731;48.592;8.858;2022-12-20T04:12:33;17.17;;;11.17;;
23123;SDS011;11731;48.592;8.858;2022-12-20T04:15:00;14.13;;;9.77;;
23123;SDS011;11731;48.592;8.858;2022-12-20T04:17:27;15.00;;;10.40;;
23123;SDS011;11731;48.592;8.858;2022-12-20T04:19:54;15.00;;;10.50;;
23123;SDS011;11731;48.592;8.858;2022-12-20T04:22:21;15.67;;;9.67;;
23123;SDS011;11731;48.592;8.858;2022-12-20T04:24:51;13.90;;;10.30;;
23123;SDS011;11731;48.592;8.858;2022-12-20T04:27:19;15.33;;;10.23;;
23123;SDS011;11731;48.592;8.858;2022-12-20T04:29:46;15.47;;;9.63;;
23123;SDS011;11731;48.592;8.858;2022-12-20T04:32:13;16.93;;;10.20;;
23123;SDS011;11731;48.592;8.858;2022-12-20T04:34:39;15.77;;;10.53;;
23123;SDS011;11731;48.592;8.858;2022-12-20T04:37:06;16.60;;;9.73;;
23123;SDS011;11731;48.592;8.858;2022-12-20T04:39:33;13.57;;;9.77;;
23123;SDS011;11731;48.592;8.858;2022-12-20T04:42:00;13.50;;;9.47;;
23123;SDS011;11731;48.592;8.858;2022-12-20T04:44:28;13.40;;;9.33;;
23123;SDS011;11731;48.592;8.858;2022-12-20T04:46:55;13.07;;;9.83;;
23123;SDS011;11731;48.592;8.858;2022-12-20T04:49:22;13.57;;;9.03;;
23123;SDS011;11731;48.592;8.858;2022-12-20T04:51:49;16.00;;;9.67;;
23123;SDS011;11731;48.592;8.858;2022-12-20T04:54:15;12.43;;;8.63;;
23123;SDS011;11731;48.592;8.858;2022-12-20T04:56:41;14.57;;;9.07;;
23123;SDS011;11731;48.592;8.858;2022-12-20T04:59:08;15.00;;;9.00;;
23123;SDS011;11731;48.592;8.858;2022-12-20T05:01:37;12.83;;;8.77;;
23123;SDS011;11731;48.592;8.858;2022-12-20T05:04:04;10.83;;;8.77;;
23123;SDS011;11731;48.592;8.858;2022-12-20T05:06:31;12.30;;;8.30;;
23123;SDS011;11731;48.592;8.858;2022-12-20T05:08:58;12.03;;;8.53;;
23123;SDS011;11731;48.592;8.858;2022-12-20T05:11:25;10.13;;;7.77;;
23123;SDS011;11731;48.592;8.858;2022-12-20T05:13:51;11.83;;;8.20;;
23123;SDS011;11731;48.592;8.858;2022-12-20T05:16:18;12.20;;;8.30;;
23123;SDS011;11731;48.592;8.858;2022-12-20T05:18:46;11.30;;;8.00;;
23123;SDS011;11731;48.592;8.858;2022-12-20T05:21:13;10.23;;;7.63;;
23123;SDS011;11731;48.592;8.858;2022-12-20T05:23:57;12.30;;;8.50;;
23123;SDS011;11731;48.592;8.858;2022-12-20T05:26:41;10.50;;;8.43;;
23123;SDS011;11731;48.592;8.858;2022-12-20T05:29:08;14.27;;;8.27;;
23123;SDS011;11731;48.592;8.858;2022-12-20T05:31:35;12.20;;;8.27;;
23123;SDS011;11731;48.592;8.858;2022-12-20T05:34:03;12.83;;;8.20;;
23123;SDS011;11731;48.592;8.858;2022-12-20T05:36:30;11.10;;;8.43;;
23123;SDS011;11731;48.592;8.858;2022-12-20T05:38:57;10.60;;;7.50;;
23123;SDS011;11731;48.592;8.858;2022-12-20T05:41:24;13.63;;;8.83;;
23123;SDS011;11731;48.592;8.858;2022-12-20T05:43:51;11.17;;;7.67;;
23123;SDS011;11731;48.592;8.858;2022-12-20T05:46:17;12.23;;;7.93;;
23123;SDS011;11731;48.592;8.858;2022-12-20T05:48:44;13.70;;;8.83;;
23123;SDS011;11731;48.592;8.858;2022-12-20T05:51:13;10.50;;;7.93;;
23123;SDS011;11731;48.592;8.858;2022-12-20T05:53:39;9.93;;;7.40;;
23123;SDS011;11731;48.592;8.858;2022-12-20T05:56:06;12.03;;;8.17;;
23123;SDS011;11731;48.592;8.858;2022-12-20T05:58:33;12.03;;;8.60;;
23123;SDS011;11731;48.592;8.858;2022-12-20T06:01:00;11.47;;;8.57;;
23123;SDS011;11731;48.592;8.858;2022-12-20T06:03:28;11.17;;;7.90;;
23123;SDS011;11731;48.592;8.858;2022-12-20T06:05:55;12.80;;;8.27;;
23123;SDS011;11731;48.592;8.858;2022-12-20T06:08:24;11.13;;;7.70;;
23123;SDS011;11731;48.592;8.858;2022-12-20T06:10:51;10.17;;;7.10;;
23123;SDS011;11731;48.592;8.858;2022-12-20T06:13:18;10.73;;;6.33;;
23123;SDS011;11731;48.592;8.858;2022-12-20T06:15:45;9.90;;;6.47;;
23123;SDS011;11731;48.592;8.858;2022-12-20T06:18:12;11.07;;;7.60;;
23123;SDS011;11731;48.592;8.858;2022-12-20T06:20:39;10.10;;;7.70;;
23123;SDS011;11731;48.592;8.858;2022-12-20T06:23:06;9.23;;;6.80;;
23123;SDS011;11731;48.592;8.858;2022-12-20T06:25:35;9.23;;;7.43;;
23123;SDS011;11731;48.592;8.858;2022-12-20T06:28:03;12.90;;;8.10;;
23123;SDS011;11731;48.592;8.858;2022-12-20T06:30:31;9.17;;;7.80;;
23123;SDS011;11731;48.592;8.858;2022-12-20T06:32:59;10.27;;;7.93;;
23123;SDS011;11731;48.592;8.858;2022-12-20T06:35:26;8.03;;;6.83;;
23123;SDS011;11731;48.592;8.858;2022-12-20T06:37:53;10.20;;;7.00;;
23123;SDS011;11731;48.592;8.858;2022-12-20T06:40:19;10.03;;;7.43;;
23123;SDS011;11731;48.592;8.858;2022-12-20T06:42:48;10.20;;;7.10;;
23123;SDS011;11731;48.592;8.858;2022-12-20T06:45:15;9.87;;;6.97;;
23123;SDS011;11731;48.592;8.858;2022-12-20T06:47:43;7.57;;;5.93;;
23123;SDS011;11731;48.592;8.858;2022-12-20T06:50:10;10.20;;;5.70;;
23123;SDS011;11731;48.592;8.858;2022-12-20T06:52:37;9.53;;;5.43;;
23123;SDS011;11731;48.592;8.858;2022-12-20T06:55:04;8.57;;;5.63;;
23123;SDS011;11731;48.592;8.858;2022-12-20T06:57:31;7.80;;;5.47;;
23123;SDS011;11731;48.592;8.858;2022-12-20T06:59:59;7.20;;;4.67;;
23123;SDS011;11731;48.592;8.858;2022-12-20T07:02:26;5.63;;;4.50;;
23123;SDS011;11731;48.592;8.858;2022-12-20T07:04:53;7.40;;;4.97;;
23123;SDS011;11731;48.592;8.858;2022-12-20T07:07:20;7.67;;;5.30;;
23123;SDS011;11731;48.592;8.858;2022-12-20T07:09:47;10.60;;;6.70;;
23123;SDS011;11731;48.592;8.858;2022-12-20T07:12:14;8.63;;;6.53;;
23123;SDS011;11731;48.592;8.858;2022-12-20T07:14:41;8.33;;;6.30;;
23123;SDS011;11731;48.592;8.858;2022-12-20T07:17:10;8.33;;;6.27;;
23123;SDS011;11731;48.592;8.858;2022-12-20T07:19:36;7.47;;;6.17;;
23123;SDS011;11731;48.592;8.858;2022-12-20T07:22:04;7.73;;;6.30;;
23123;SDS011;11731;48.592;8.858;2022-12-20T07:24:31;9.77;;;6.20;;
23123;SDS011;11731;48.592;8.858;2022-12-20T07:26:58;8.23;;;6.73;;
23123;SDS011;11731;48.592;8.858;2022-12-20T07:29:25;9.37;;;6.73;;
23123;SDS011;11731;48.592;8.858;2022-12-20T07:31:52;7.63;;;6.37;;
23123;SDS011;11731;48.592;8.858;2022-12-20T07:34:21;8.07;;;6.30;;
23123;SDS011;11731;48.592;8.858;2022-12-20T07:36:48;8.73;;;6.23;;
23123;SDS011;11731;48.592;8.858;2022-12-20T07:39:15;8.97;;;6.20;;
23123;SDS011;11731;48.592;8.858;2022-12-20T07:41:43;7.33;;;5.10;;
23123;SDS011;11731;48.592;8.858;2022-12-20T07:44:11;6.47;;;4.77;;
23123;SDS011;11731;48.592;8.858;2022-12-20T07:46:38;5.43;;;4.60;;
23123;SDS011;11731;48.592;8.858;2022-12-20T07:49:05;9.53;;;5.50;;
23123;SDS011;11731;48.592;8.858;2022-12-20T07:51:34;6.37;;;4.80;;
23123;SDS011;11731;48.592;8.858;2022-12-20T07:54:03;7.17;;;4.53;;
23123;SDS011;11731;48.592;8.858;2022-12-20T07:56:34;5.57;;;4.03;;
23123;SDS011;11731;48.592;8.858;2022-12-20T07:59:05;6.07;;;4.63;;
23123;SDS011;11731;48.592;8.858;2022-12-20T08:01:32;8.53;;;5.30;;
23123;SDS011;11731;48.592;8.858;2022-12-20T08:04:01;5.87;;;5.07;;
23123;SDS011;11731;48.592;8.858;2022-12-20T08:06:31;7.60;;;4.53;;
23123;SDS011;11731;48.592;8.858;2022-12-20T08:09:02;7.87;;;5.00;;
23123;SDS011;11731;48.592;8.858;2022-12-20T08:11:30;7.60;;;5.10;;
23123;SDS011;11731;48.592;8.858;2022-12-20T08:14:00;9.97;;;4.77;;
23123;SDS011;11731;48.592;8.858;2022-12-20T08:16:27;14.53;;;5.17;;
23123;SDS011;11731;48.592;8.858;2022-12-20T08:18:55;8.27;;;5.40;;
23123;SDS011;11731;48.592;8.858;2022-12-20T08:21:22;9.90;;;4.73;;
23123;SDS011;11731;48.592;8.858;2022-12-20T08:23:50;12.00;;;5.40;;
23123;SDS011;11731;48.592;8.858;2022-12-20T08:26:17;6.17;;;4.40;;
23123;SDS011;11731;48.592;8.858;2022-12-20T08:28:44;13.23;;;5.20;;
23123;SDS011;11731;48.592;8.858;2022-12-20T08:31:11;7.93;;;4.50;;
23123;SDS011;11731;48.592;8.858;2022-12-20T08:33:38;6.30;;;4.03;;
23123;SDS011;11731;48.592;8.858;2022-12-20T08:36:07;8.40;;;4.60;;
23123;SDS011;11731;48.592;8.858;2022-12-20T08:38:36;4.97;;;4.17;;
23123;SDS011;11731;48.592;8.858;2022-12-20T08:41:05;4.70;;;4.00;;
23123;SDS011;11731;48.592;8.858;2022-12-20T08:43:34;5.30;;;3.73;;
23123;SDS011;11731;48.592;8.858;2022-12-20T08:46:01;6.90;;;4.13;;
23123;SDS011;11731;48.592;8.858;2022-12-20T08:48:28;5.37;;;4.50;;
23123;SDS011;11731;48.592;8.858;2022-12-20T08:50:56;5.60;;;4.13;;
23123;SDS011;11731;48.592;8.858;2022-12-20T08:53:25;6.03;;;4.40;;
23123;SDS011;11731;48.592;8.858;2022-12-20T08:55:52;6.80;;;4.80;;
23123;SDS011;11731;48.592;8.858;2022-12-20T08:58:20;6.80;;;3.80;;
23123;SDS011;11731;48.592;8.858;2022-12-20T09:00:47;6.80;;;3.93;;
23123;SDS011;11731;48.592;8.858;2022-12-20T09:03:14;6.17;;;4.40;;
23123;SDS011;11731;48.592;8.858;2022-12-20T09:05:44;5.57;;;4.20;;
23123;SDS011;11731;48.592;8.858;2022-12-20T09:08:12;6.77;;;4.10;;
23123;SDS011;11731;48.592;8.858;2022-12-20T09:10:40;5.60;;;3.97;;
23123;SDS011;11731;48.592;8.858;2022-12-20T09:13:07;7.67;;;4.40;;
23123;SDS011;11731;48.592;8.858;2022-12-20T09:15:36;5.37;;;4.20;;
23123;SDS011;11731;48.592;8.858;2022-12-20T09:18:03;7.83;;;4.53;;
23123;SDS011;11731;48.592;8.858;2022-12-20T09:20:30;7.50;;;4.70;;
23123;SDS011;11731;48.592;8.858;2022-12-20T09:22:58;5.93;;;4.63;;
23123;SDS011;11731;48.592;8.858;2022-12-20T09:25:25;7.30;;;4.93;;
23123;SDS011;11731;48.592;8.858;2022-12-20T09:27:52;6.70;;;4.13;;
23123;SDS011;11731;48.592;8.858;2022-12-20T09:30:20;6.40;;;4.80;;
23123;SDS011;11731;48.592;8.858;2022-12-20T09:32:48;6.80;;;4.93;;
23123;SDS011;11731;48.592;8.858;2022-12-20T09:35:15;9.60;;;5.27;;
23123;SDS011;11731;48.592;8.858;2022-12-20T09:37:42;8.50;;;5.17;;
23123;SDS011;11731;48.592;8.858;2022-12-20T09:40:13;8.63;;;4.77;;
23123;SDS011;11731;48.592;8.858;2022-12-20T09:42:43;6.03;;;4.60;;
23123;SDS011;11731;48.592;8.858;2022-12-20T09:45:13;6.30;;;3.40;;
23123;SDS011;11731;48.592;8.858;2022-12-20T09:47:50;7.20;;;3.83;;
23123;SDS011;11731;48.592;8.858;2022-12-20T09:50:18;5.53;;;4.37;;
23123;SDS011;11731;48.592;8.858;2022-12-20T09:52:53;4.50;;;3.53;;
23123;SDS011;11731;48.592;8.858;2022-12-20T09:55:30;6.83;;;3.70;;
23123;SDS011;11731;48.592;8.858;2022-12-20T09:58:09;5.43;;;3.60;;
23123;SDS011;11731;48.592;8.858;2022-12-20T10:00:46;6.97;;;3.80;;
23123;SDS011;11731;48.592;8.858;2022-12-20T10:03:17;5.53;;;4.20;;
23123;SDS011;11731;48.592;8.858;2022-12-20T10:05:48;6.57;;;4.37;;
23123;SDS011;11731;48.592;8.858;2022-12-20T10:08:22;8.03;;;4.37;;
23123;SDS011;11731;48.592;8.858;2022-12-20T10:11:01;6.20;;;4.67;;
23123;SDS011;11731;48.592;8.858;2022-12-20T10:13:46;5.90;;;4.90;;
23123;SDS011;11731;48.592;8.858;2022-12-20T10:16:28;6.33;;;4.53;;
23123;SDS011;11731;48.592;8.858;2022-12-20T10:19:12;9.27;;;4.43;;
23123;SDS011;11731;48.592;8.858;2022-12-20T10:21:49;7.90;;;4.57;;
23123;SDS011;11731;48.592;8.858;2022-12-20T10:24:23;10.23;;;4.67;;
23123;SDS011;11731;48.592;8.858;2022-12-20T10:26:52;10.90;;;4.67;;
23123;SDS011;11731;48.592;8.858;2022-12-20T10:29:20;6.90;;;4.67;;
23123;SDS011;11731;48.592;8.858;2022-12-20T10:31:48;8.63;;;5.13;;
23123;SDS011;11731;48.592;8.858;2022-12-20T10:34:18;9.57;;;4.63;;
23123;SDS011;11731;48.592;8.858;2022-12-20T10:36:45;9.40;;;4.93;;
23123;SDS011;11731;48.592;8.858;2022-12-20T10:39:39;9.93;;;4.70;;
23123;SDS011;11731;48.592;8.858;2022-12-20T10:42:18;6.17;;;4.87;;
23123;SDS011;11731;48.592;8.858;2022-12-20T10:44:50;7.97;;;4.50;;
23123;SDS011;11731;48.592;8.858;2022-12-20T10:47:21;12.87;;;10.33;;
23123;SDS011;11731;48.592;8.858;2022-12-20T10:50:02;11.40;;;7.93;;
23123;SDS011;11731;48.592;8.858;2022-12-20T10:52:34;9.60;;;5.63;;
23123;SDS011;11731;48.592;8.858;2022-12-20T10:55:01;9.53;;;5.43;;
23123;SDS011;11731;48.592;8.858;2022-12-20T10:57:31;7.17;;;4.80;;
23123;SDS011;11731;48.592;8.858;2022-12-20T10:59:58;7.70;;;4.40;;
23123;SDS011;11731;48.592;8.858;2022-12-20T11:02:27;14.30;;;4.63;;
23123;SDS011;11731;48.592;8.858;2022-12-20T11:04:56;5.70;;;4.20;;
23123;SDS011;11731;48.592;8.858;2022-12-20T11:07:27;4.30;;;3.47;;
23123;SDS011;11731;48.592;8.858;2022-12-20T11:09:56;5.87;;;4.07;;
23123;SDS011;11731;48.592;8.858;2022-12-20T11:12:24;4.50;;;3.53;;
23123;SDS011;11731;48.592;8.858;2022-12-20T11:15:06;3.97;;;3.17;;
23123;SDS011;11731;48.592;8.858;2022-12-20T11:17:35;6.47;;;3.80;;
23123;SDS011;11731;48.592;8.858;2022-12-20T11:20:20;5.10;;;4.10;;
23123;SDS011;11731;48.592;8.858;2022-12-20T11:22:54;7.40;;;4.10;;
23123;SDS011;11731;48.592;8.858;2022-12-20T11:28:23;7.30;;;4.53;;
23123;SDS011;11731;48.592;8.858;2022-12-20T11:31:05;6.20;;;5.07;;
23123;SDS011;11731;48.592;8.858;2022-12-20T11:33:51;8.73;;;4.93;;
23123;SDS011;11731;48.592;8.858;2022-12-20T11:36:30;7.87;;;4.97;;
23123;SDS011;11731;48.592;8.858;2022-12-20T11:39:14;7.40;;;5.43;;
23123;SDS011;11731;48.592;8.858;2022-12-20T11:41:54;7.10;;;4.53;;
23123;SDS011;11731;48.592;8.858;2022-12-20T11:44:28;7.80;;;5.20;;
23123;SDS011;11731;48.592;8.858;2022-12-20T11:47:07;11.07;;;4.93;;
23123;SDS011;11731;48.592;8.858;2022-12-20T11:52:52;9.60;;;4.83;;
23123;SDS011;11731;48.592;8.858;2022-12-20T11:55:25;8.00;;;4.77;;
23123;SDS011;11731;48.592;8.858;2022-12-20T11:57:58;7.93;;;4.77;;
23123;SDS011;11731;48.592;8.858;2022-12-20T12:00:26;8.43;;;4.87;;
23123;SDS011;11731;48.592;8.858;2022-12-20T12:02:56;8.23;;;4.63;;
23123;SDS011;11731;48.592;8.858;2022-12-20T12:05:27;5.63;;;3.97;;
23123;SDS011;11731;48.592;8.858;2022-12-20T12:08:03;6.43;;;4.07;;
23123;SDS011;11731;48.592;8.858;2022-12-20T12:10:39;8.63;;;4.47;;
23123;SDS011;11731;48.592;8.858;2022-12-20T12:13:10;6.17;;;4.10;;
23123;SDS011;11731;48.592;8.858;2022-12-20T12:15:45;8.40;;;4.53;;
23123;SDS011;11731;48.592;8.858;2022-12-20T12:18:19;5.67;;;4.50;;
23123;SDS011;11731;48.592;8.858;2022-12-20T12:20:50;6.80;;;4.20;;
23123;SDS011;11731;48.592;8.858;2022-12-20T12:23:23;6.80;;;4.53;;
23123;SDS011;11731;48.592;8.858;2022-12-20T12:25:57;6.50;;;4.57;;
23123;SDS011;11731;48.592;8.858;2022-12-20T12:28:27;4.33;;;3.60;;
23123;SDS011;11731;48.592;8.858;2022-12-20T12:30:55;7.03;;;3.70;;
23123;SDS011;11731;48.592;8.858;2022-12-20T12:33:29;4.73;;;3.43;;
23123;SDS011;11731;48.592;8.858;2022-12-20T12:42:08;4.60;;;3.63;;
23123;SDS011;11731;48.592;8.858;2022-12-20T12:44:47;4.17;;;3.07;;
23123;SDS011;11731;48.592;8.858;2022-12-20T12:47:20;5.27;;;3.13;;
23123;SDS011;11731;48.592;8.858;2022-12-20T12:49:50;5.13;;;3.03;;
23123;SDS011;11731;48.592;8.858;2022-12-20T12:52:25;4.83;;;3.40;;
23123;SDS011;11731;48.592;8.858;2022-12-20T12:54:54;7.70;;;3.07;;
23123;SDS011;11731;48.592;8.858;2022-12-20T12:57:22;4.07;;;3.03;;
23123;SDS011;11731;48.592;8.858;2022-12-20T12:59:49;6.43;;;3.13;;
23123;SDS011;11731;48.592;8.858;2022-12-20T13:02:33;5.70;;;3.10;;
23123;SDS011;11731;48.592;8.858;2022-12-20T13:07:59;4.37;;;3.03;;
23123;SDS011;11731;48.592;8.858;2022-12-20T13:13:28;5.13;;;3.30;;
23123;SDS011;11731;48.592;8.858;2022-12-20T13:16:08;5.23;;;3.30;;
23123;SDS011;11731;48.592;8.858;2022-12-20T13:18:37;6.53;;;4.03;;
23123;SDS011;11731;48.592;8.858;2022-12-20T13:21:27;5.43;;;3.97;;
23123;SDS011;11731;48.592;8.858;2022-12-20T13:27:02;5.70;;;3.83;;
23123;SDS011;11731;48.592;8.858;2022-12-20T13:29:51;5.43;;;3.60;;
23123;SDS011;11731;48.592;8.858;2022-12-20T13:35:43;5.37;;;3.83;;
23123;SDS011;11731;48.592;8.858;2022-12-20T13:38:36;6.87;;;4.20;;
23123;SDS011;11731;48.592;8.858;2022-12-20T13:41:17;5.30;;;3.53;;
23123;SDS011;11731;48.592;8.858;2022-12-20T13:43:56;5.57;;;3.47;;
23123;SDS011;11731;48.592;8.858;2022-12-20T13:46:29;5.20;;;3.97;;
23123;SDS011;11731;48.592;8.858;2022-12-20T13:49:01;7.70;;;4.67;;
23123;SDS011;11731;48.592;8.858;2022-12-20T13:51:30;6.50;;;4.43;;
23123;SDS011;11731;48.592;8.858;2022-12-20T13:53:58;7.40;;;5.53;;
23123;SDS011;11731;48.592;8.858;2022-12-20T13:56:31;8.17;;;5.20;;
23123;SDS011;11731;48.592;8.858;2022-12-20T13:59:04;9.60;;;6.00;;
23123;SDS011;11731;48.592;8.858;2022-12-20T14:01:39;10.23;;;5.20;;
23123;SDS011;11731;48.592;8.858;2022-12-20T14:04:17;7.67;;;4.90;;
23123;SDS011;11731;48.592;8.858;2022-12-20T14:06:44;7.07;;;4.97;;
23123;SDS011;11731;48.592;8.858;2022-12-20T14:09:27;6.63;;;5.30;;
23123;SDS011;11731;48.592;8.858;2022-12-20T14:12:01;8.80;;;6.00;;
23123;SDS011;11731;48.592;8.858;2022-12-20T14:14:30;7.57;;;6.03;;
23123;SDS011;11731;48.592;8.858;2022-12-20T14:17:14;6.87;;;5.27;;
23123;SDS011;11731;48.592;8.858;2022-12-20T14:19:42;6.53;;;5.07;;
23123;SDS011;11731;48.592;8.858;2022-12-20T14:22:10;9.23;;;4.93;;
23123;SDS011;11731;48.592;8.858;2022-12-20T14:24:38;9.53;;;5.23;;
23123;SDS011;11731;48.592;8.858;2022-12-20T14:27:07;8.83;;;6.10;;
23123;SDS011;11731;48.592;8.858;2022-12-20T14:29:37;8.17;;;5.80;;
23123;SDS011;11731;48.592;8.858;2022-12-20T14:32:05;11.73;;;6.37;;
23123;SDS011;11731;48.592;8.858;2022-12-20T14:34:43;9.00;;;6.00;;
23123;SDS011;11731;48.592;8.858;2022-12-20T14:37:27;8.57;;;5.93;;
23123;SDS011;11731;48.592;8.858;2022-12-20T14:39:58;9.17;;;5.80;;
23123;SDS011;11731;48.592;8.858;2022-12-20T14:42:28;9.07;;;6.27;;
23123;SDS011;11731;48.592;8.858;2022-12-20T14:45:05;7.83;;;6.03;;
23123;SDS011;11731;48.592;8.858;2022-12-20T14:47:47;6.07;;;4.93;;
23123;SDS011;11731;48.592;8.858;2022-12-20T14:50:17;7.47;;;5.13;;
23123;SDS011;11731;48.592;8.858;2022-12-20T14:52:47;8.03;;;5.23;;
23123;SDS011;11731;48.592;8.858;2022-12-20T14:55:15;6.93;;;4.73;;
23123;SDS011;11731;48.592;8.858;2022-12-20T14:57:45;6.97;;;5.30;;
23123;SDS011;11731;48.592;8.858;2022-12-20T15:00:19;8.23;;;5.47;;
23123;SDS011;11731;48.592;8.858;2022-12-20T15:02:56;7.83;;;5.40;;
23123;SDS011;11731;48.592;8.858;2022-12-20T15:05:36;7.93;;;4.97;;
23123;SDS011;11731;48.592;8.858;2022-12-20T15:08:16;8.97;;;5.83;;
23123;SDS011;11731;48.592;8.858;2022-12-20T15:10:47;10.60;;;5.50;;
23123;SDS011;11731;48.592;8.858;2022-12-20T15:13:17;7.93;;;5.50;;
23123;SDS011;11731;48.592;8.858;2022-12-20T15:15:45;10.60;;;6.00;;
23123;SDS011;11731;48.592;8.858;2022-12-20T15:18:13;9.20;;;5.83;;
23123;SDS011;11731;48.592;8.858;2022-12-20T15:20:42;8.77;;;5.77;;
23123;SDS011;11731;48.592;8.858;2022-12-20T15:23:14;8.43;;;5.20;;
23123;SDS011;11731;48.592;8.858;2022-12-20T15:25:42;6.23;;;4.90;;
23123;SDS011;11731;48.592;8.858;2022-12-20T15:28:18;8.50;;;5.00;;
23123;SDS011;11731;48.592;8.858;2022-12-20T15:30:46;8.77;;;5.97;;
23123;SDS011;11731;48.592;8.858;2022-12-20T15:33:17;18.17;;;11.03;;
23123;SDS011;11731;48.592;8.858;2022-12-20T15:35:47;13.43;;;8.60;;
23123;SDS011;11731;48.592;8.858;2022-12-20T15:38:16;13.50;;;7.20;;